Time;durP1;ratioP1;P1;durP2;ratioP2;P2;SDS_P1;SDS_P2;PMS_P1;PMS_P2;Temp;Humidity;BMP_temperature;BMP_pressure;BME280_temperature;BME280_humidity;BME280_pressure;Samples;Min_cycle;Max_cycle;Signal;HPM_P1;HPM_P2
2022/06/08 00:02:22;;;;;;;3.77;2.70;;;15.50;99.90;;;;;;6062889;23;20494;-82
2022/06/08 00:04:49;;;;;;;2.80;2.60;;;15.40;99.90;;;;;;6062759;23;20441;-82
2022/06/08 00:07:16;;;;;;;2.10;2.00;;;15.40;99.90;;;;;;6062879;23;20450;-82
2022/06/08 00:09:44;;;;;;;2.63;2.43;;;15.40;99.90;;;;;;6062812;23;20513;-82
2022/06/08 00:12:12;;;;;;;2.30;2.10;;;15.40;99.90;;;;;;6062833;23;20455;-82
2022/06/08 00:14:39;;;;;;;2.40;2.17;;;15.40;99.90;;;;;;6062618;23;20819;-82
2022/06/08 00:17:07;;;;;;;1.80;1.70;;;15.40;99.90;;;;;;6062308;23;20443;-82
2022/06/08 00:19:34;;;;;;;2.40;2.10;;;15.30;99.90;;;;;;6063093;23;20540;-82
2022/06/08 00:22:02;;;;;;;2.30;2.10;;;15.30;99.90;;;;;;6063220;23;20509;-82
2022/06/08 00:24:30;;;;;;;2.60;2.40;;;15.20;99.90;;;;;;6062513;23;20440;-82
2022/06/08 00:27:00;;;;;;;2.60;2.40;;;15.20;99.90;;;;;;6063087;23;20538;-82
2022/06/08 00:29:27;;;;;;;2.30;2.20;;;15.20;99.90;;;;;;6062808;23;20442;-82
2022/06/08 00:31:54;;;;;;;2.83;2.50;;;15.10;99.90;;;;;;6062664;23;20467;-82
2022/06/08 00:34:22;;;;;;;3.20;2.70;;;15.10;99.90;;;;;;6063335;23;20530;-82
2022/06/08 00:36:49;;;;;;;2.60;2.40;;;15.10;99.90;;;;;;6062404;23;20435;-82
2022/06/08 00:39:16;;;;;;;2.33;2.00;;;15.20;99.90;;;;;;6062401;23;20964;-82
2022/06/08 00:41:46;;;;;;;4.10;2.30;;;15.10;99.90;;;;;;6062532;23;20451;-82
2022/06/08 00:44:19;;;;;;;2.07;1.90;;;15.20;99.90;;;;;;6063066;23;20440;-82
2022/06/08 00:46:47;;;;;;;2.47;2.27;;;15.20;99.90;;;;;;6062258;23;20489;-82
2022/06/08 00:49:20;;;;;;;2.67;2.47;;;15.20;99.90;;;;;;6063083;23;20501;-82
2022/06/08 00:51:47;;;;;;;2.33;2.10;;;15.30;99.90;;;;;;6062967;23;20451;-82
2022/06/08 00:54:22;;;;;;;2.60;2.40;;;15.40;99.90;;;;;;6062819;23;20467;-82
2022/06/08 00:56:53;;;;;;;3.00;2.50;;;15.40;99.90;;;;;;6062108;23;20826;-82
2022/06/08 00:59:22;;;;;;;2.60;2.40;;;15.30;99.90;;;;;;6062802;23;20459;-82
2022/06/08 01:01:49;;;;;;;2.50;2.30;;;15.30;99.90;;;;;;6062456;23;21017;-82
2022/06/08 01:04:19;;;;;;;2.30;2.10;;;15.20;99.90;;;;;;6062423;23;20889;-82
2022/06/08 01:06:52;;;;;;;2.50;2.30;;;15.20;99.90;;;;;;6062370;23;20439;-82
2022/06/08 01:09:26;;;;;;;2.20;2.00;;;15.30;99.90;;;;;;6062359;23;20469;-82
2022/06/08 01:11:56;;;;;;;2.80;2.20;;;15.20;99.90;;;;;;6062646;23;20546;-82
2022/06/08 01:14:25;;;;;;;2.50;2.30;;;15.20;99.90;;;;;;6062431;23;20530;-82
2022/06/08 01:16:58;;;;;;;4.30;2.30;;;15.20;99.90;;;;;;6062301;23;20439;-82
2022/06/08 01:19:25;;;;;;;2.50;2.30;;;15.10;99.90;;;;;;6062588;23;20480;-82
2022/06/08 01:21:56;;;;;;;2.30;2.10;;;15.20;99.90;;;;;;6061921;23;20495;-82
2022/06/08 01:24:24;;;;;;;2.47;2.27;;;15.20;99.90;;;;;;6062570;23;20432;-82
2022/06/08 01:27:11;;;;;;;2.10;2.00;;;15.10;99.90;;;;;;6062066;23;20783;-82
2022/06/08 01:29:47;;;;;;;2.60;2.40;;;15.10;99.90;;;;;;6062685;23;20774;-82
2022/06/08 01:32:22;;;;;;;2.70;2.40;;;15.10;99.90;;;;;;6062500;23;20447;-82
2022/06/08 01:35:07;;;;;;;2.30;2.20;;;15.00;99.90;;;;;;6062257;23;20927;-82
2022/06/08 01:37:48;;;;;;;2.30;2.10;;;14.90;99.90;;;;;;6062021;23;20435;-81
2022/06/08 01:40:35;;;;;;;3.03;2.30;;;14.90;99.90;;;;;;6062153;23;20589;-82
2022/06/08 01:43:14;;;;;;;2.10;1.87;;;14.90;99.90;;;;;;6062485;23;20463;-82
2022/06/08 01:45:53;;;;;;;2.60;2.40;;;14.90;99.90;;;;;;6061857;23;20818;-82
2022/06/08 01:48:45;;;;;;;2.57;2.40;;;15.00;99.90;;;;;;6062260;23;20435;-82
2022/06/08 01:51:22;;;;;;;2.30;2.20;;;15.00;99.90;;;;;;6057507;23;20542;-82
2022/06/08 01:53:58;;;;;;;3.00;2.43;;;15.00;99.90;;;;;;6037790;23;20937;-82
2022/06/08 01:56:30;;;;;;;2.57;2.37;;;15.00;99.90;;;;;;6061817;23;20946;-82
2022/06/08 01:59:10;;;;;;;2.63;2.43;;;15.00;99.90;;;;;;6062862;23;20516;-82
2022/06/08 02:01:43;;;;;;;2.60;2.40;;;15.00;99.90;;;;;;6061890;23;20506;-82
2022/06/08 02:04:19;;;;;;;2.30;2.10;;;15.00;99.90;;;;;;6063568;23;20499;-82
2022/06/08 02:06:52;;;;;;;2.80;2.60;;;14.90;99.90;;;;;;6063250;23;20481;-82
2022/06/08 02:09:26;;;;;;;2.83;2.63;;;14.90;99.90;;;;;;6063721;23;20451;-82
2022/06/08 02:11:59;;;;;;;2.70;2.50;;;14.80;99.90;;;;;;6063247;23;20464;-82
2022/06/08 02:14:33;;;;;;;3.23;2.53;;;14.80;99.90;;;;;;6063075;23;20526;-82
2022/06/08 02:17:06;;;;;;;2.30;2.20;;;14.80;99.90;;;;;;6063073;23;20947;-82
2022/06/08 02:19:37;;;;;;;2.60;2.40;;;14.70;99.90;;;;;;6063807;23;20434;-82
2022/06/08 02:22:08;;;;;;;3.13;2.40;;;14.60;99.90;;;;;;6062898;23;20877;-82
2022/06/08 02:24:40;;;;;;;3.27;2.50;;;14.60;99.90;;;;;;6063736;23;20510;-82
2022/06/08 02:27:15;;;;;;;2.63;2.53;;;14.50;99.90;;;;;;6063071;23;20470;-82
2022/06/08 02:29:47;;;;;;;3.33;3.03;;;14.40;99.90;;;;;;6063556;23;20436;-82
2022/06/08 02:35:10;;;;;;;2.83;2.63;;;14.50;99.90;;;;;;6063075;23;20504;-82
2022/06/08 02:37:39;;;;;;;2.50;2.30;;;14.50;99.90;;;;;;6063432;23;20446;-82
2022/06/08 02:40:12;;;;;;;2.80;2.50;;;14.70;99.90;;;;;;6063417;23;20514;-82
2022/06/08 02:42:42;;;;;;;2.90;2.57;;;14.50;99.90;;;;;;6063094;23;21008;-82
2022/06/08 02:45:14;;;;;;;2.87;2.67;;;14.50;99.90;;;;;;6062613;23;20910;-82
2022/06/08 02:47:43;;;;;;;3.15;2.95;;;14.40;99.90;;;;;;6063560;23;20435;-82
2022/06/08 02:50:12;;;;;;;3.00;2.70;;;14.40;99.90;;;;;;6063288;23;20188;-82
2022/06/08 02:52:42;;;;;;;2.77;2.57;;;14.40;99.90;;;;;;6062920;23;20988;-82
2022/06/08 02:55:19;;;;;;;2.43;2.23;;;14.40;99.90;;;;;;6063037;23;20459;-82
2022/06/08 02:57:54;;;;;;;3.23;2.93;;;14.40;99.90;;;;;;6062454;23;20498;-82
2022/06/08 03:00:26;;;;;;;3.40;2.93;;;14.30;99.90;;;;;;6062668;23;20616;-82
2022/06/08 03:02:59;;;;;;;3.37;3.00;;;14.30;99.90;;;;;;6062102;23;20550;-82
2022/06/08 03:05:31;;;;;;;3.03;2.73;;;14.20;99.90;;;;;;6062448;23;20880;-82
2022/06/08 03:08:01;;;;;;;3.47;3.13;;;14.20;99.90;;;;;;6063257;23;20530;-82
2022/06/08 03:10:34;;;;;;;3.40;2.43;;;14.10;99.90;;;;;;6063212;23;20952;-82
2022/06/08 03:13:06;;;;;;;3.30;3.00;;;14.10;99.90;;;;;;6063319;23;20451;-82
2022/06/08 03:15:34;;;;;;;3.30;3.00;;;14.10;99.90;;;;;;6062372;23;20946;-82
2022/06/08 03:18:02;;;;;;;2.80;2.60;;;14.00;99.90;;;;;;6062903;23;20522;-82
2022/06/08 03:20:30;;;;;;;2.77;2.57;;;14.00;99.90;;;;;;6063158;23;20455;-80
2022/06/08 03:22:57;;;;;;;3.13;2.90;;;14.00;99.90;;;;;;6063490;23;20466;-81
2022/06/08 03:25:24;;;;;;;2.73;2.53;;;14.00;99.90;;;;;;6063185;23;20459;-82
2022/06/08 03:27:54;;;;;;;2.80;2.60;;;14.00;99.90;;;;;;6062764;23;21009;-82
2022/06/08 03:30:22;;;;;;;3.83;3.00;;;14.00;99.90;;;;;;6063092;23;20185;-82
2022/06/08 03:32:49;;;;;;;3.13;2.93;;;13.90;99.90;;;;;;6063041;23;20227;-82
2022/06/08 03:35:16;;;;;;;3.37;3.07;;;13.90;99.90;;;;;;6063007;23;20435;-82
2022/06/08 03:37:43;;;;;;;4.40;2.80;;;13.90;99.90;;;;;;6063469;23;20526;-81
2022/06/08 03:40:12;;;;;;;3.42;2.80;;;13.90;99.90;;;;;;6063009;23;20271;-82
2022/06/08 03:42:39;;;;;;;3.70;3.37;;;13.90;99.90;;;;;;6062581;23;20216;-82
2022/06/08 03:45:08;;;;;;;3.45;3.05;;;13.90;99.90;;;;;;6062674;23;20463;-82
2022/06/08 03:47:41;;;;;;;3.00;2.70;;;13.90;99.90;;;;;;6063011;23;20189;-82
2022/06/08 03:50:12;;;;;;;4.13;3.27;;;13.90;99.90;;;;;;6063185;23;20192;-82
2022/06/08 03:52:43;;;;;;;3.17;2.90;;;14.00;99.90;;;;;;6062780;23;20470;-82
2022/06/08 03:55:12;;;;;;;3.00;2.70;;;14.00;99.90;;;;;;6063209;23;20185;-82
2022/06/08 03:57:44;;;;;;;3.07;2.83;;;14.00;99.90;;;;;;6062978;23;20435;-82
2022/06/08 04:00:14;;;;;;;3.47;3.17;;;14.20;99.90;;;;;;6062916;23;20431;-82
2022/06/08 04:02:42;;;;;;;2.93;2.73;;;14.10;99.90;;;;;;6062734;23;20517;-82
2022/06/08 04:05:10;;;;;;;3.03;2.83;;;14.10;99.90;;;;;;6062730;23;20514;-82
2022/06/08 04:07:37;;;;;;;3.30;3.10;;;14.10;99.90;;;;;;6063117;23;20285;-82
2022/06/08 04:10:05;;;;;;;3.23;2.90;;;14.10;99.90;;;;;;6063008;23;20514;-82
2022/06/08 04:12:33;;;;;;;3.40;3.10;;;14.20;99.90;;;;;;6062843;23;20471;-82
2022/06/08 04:14:59;;;;;;;3.70;3.17;;;14.20;99.90;;;;;;6062083;23;20455;-82
2022/06/08 04:17:29;;;;;;;3.50;3.20;;;14.30;99.90;;;;;;6037963;23;20923;-82
2022/06/08 04:19:56;;;;;;;4.33;3.10;;;14.40;99.90;;;;;;6062734;23;20965;-82
2022/06/08 04:22:30;;;;;;;3.70;3.40;;;14.40;99.90;;;;;;6062624;23;20827;-82
2022/06/08 04:24:58;;;;;;;3.80;3.50;;;14.40;99.90;;;;;;6062323;23;20437;-82
2022/06/08 04:27:26;;;;;;;4.20;3.80;;;14.40;99.90;;;;;;6062627;23;20883;-82
2022/06/08 04:29:54;;;;;;;4.87;3.47;;;14.40;99.90;;;;;;6062683;23;20435;-82
2022/06/08 04:32:22;;;;;;;5.40;3.10;;;14.50;99.90;;;;;;6062680;23;20462;-82
2022/06/08 04:34:51;;;;;;;3.43;3.10;;;14.60;99.90;;;;;;6062968;23;20526;-82
2022/06/08 04:37:17;;;;;;;4.87;3.50;;;14.60;99.90;;;;;;6062218;23;20859;-82
2022/06/08 04:39:44;;;;;;;4.20;3.50;;;14.70;99.90;;;;;;6062684;23;20518;-82
2022/06/08 04:42:11;;;;;;;5.10;3.30;;;14.80;99.90;;;;;;6061936;23;21050;-82
2022/06/08 04:44:38;;;;;;;4.63;3.00;;;14.80;99.90;;;;;;6062613;23;20962;-82
2022/06/08 04:47:07;;;;;;;3.17;2.90;;;14.90;99.90;;;;;;6062534;23;20438;-82
2022/06/08 04:49:35;;;;;;;3.60;3.00;;;15.00;99.90;;;;;;6062570;23;20443;-82
2022/06/08 04:52:04;;;;;;;3.40;3.10;;;15.00;99.90;;;;;;6062397;23;20471;-82
2022/06/08 04:54:31;;;;;;;3.00;2.70;;;15.00;99.90;;;;;;6062863;23;20501;-82
2022/06/08 04:57:00;;;;;;;5.60;3.00;;;15.00;99.90;;;;;;6062631;23;20482;-82
2022/06/08 04:59:27;;;;;;;3.13;2.40;;;15.00;99.90;;;;;;6062205;23;21075;-82
2022/06/08 05:01:54;;;;;;;3.33;3.03;;;15.00;99.90;;;;;;6062133;23;21025;-82
2022/06/08 05:04:21;;;;;;;4.10;2.63;;;15.00;99.90;;;;;;6063029;23;20534;-82
2022/06/08 05:06:48;;;;;;;3.20;2.87;;;15.00;99.90;;;;;;6062434;23;20440;-82
2022/06/08 05:09:16;;;;;;;3.30;2.50;;;14.90;99.90;;;;;;6062254;23;20918;-82
2022/06/08 05:11:45;;;;;;;2.47;2.27;;;15.00;99.90;;;;;;6062690;23;20803;-82
2022/06/08 05:14:11;;;;;;;3.60;2.87;;;15.10;99.90;;;;;;6062703;23;20446;-82
2022/06/08 05:16:38;;;;;;;3.97;2.57;;;15.10;99.90;;;;;;6061874;23;20474;-82
2022/06/08 05:19:05;;;;;;;5.00;2.33;;;15.10;99.90;;;;;;6062676;23;20443;-82
2022/06/08 05:21:33;;;;;;;4.40;2.80;;;15.20;99.90;;;;;;6062656;23;20511;-82
2022/06/08 05:24:00;;;;;;;3.47;2.30;;;15.20;99.90;;;;;;6062491;23;20940;-82
2022/06/08 05:26:29;;;;;;;2.83;2.30;;;15.30;99.90;;;;;;6063027;23;20748;-82
2022/06/08 05:28:56;;;;;;;3.47;2.30;;;15.40;99.90;;;;;;6062909;23;20447;-82
2022/06/08 05:31:23;;;;;;;3.50;1.90;;;15.50;99.90;;;;;;6062250;23;20455;-82
2022/06/08 05:33:52;;;;;;;2.70;2.37;;;15.60;99.90;;;;;;6062249;23;20478;-82
2022/06/08 05:36:19;;;;;;;3.20;2.20;;;15.70;99.90;;;;;;6062469;23;20439;-82
2022/06/08 05:38:46;;;;;;;3.03;2.40;;;15.80;99.90;;;;;;6063573;23;20534;-82
2022/06/08 05:41:13;;;;;;;3.63;2.10;;;15.90;99.90;;;;;;6064114;23;20475;-82
2022/06/08 05:43:41;;;;;;;2.80;2.33;;;16.00;99.90;;;;;;6063653;23;20497;-81
2022/06/08 05:46:08;;;;;;;3.53;2.50;;;16.10;99.90;;;;;;6063585;23;20995;-82
2022/06/08 05:48:35;;;;;;;5.50;2.40;;;16.00;99.90;;;;;;6063795;23;20443;-82
2022/06/08 05:51:02;;;;;;;3.43;2.50;;;16.10;99.90;;;;;;6063939;23;20455;-83
2022/06/08 05:53:29;;;;;;;3.60;2.50;;;16.20;99.90;;;;;;6063790;23;20435;-83
2022/06/08 05:55:56;;;;;;;4.83;2.20;;;16.30;99.90;;;;;;6063710;23;20436;-83
2022/06/08 05:58:23;;;;;;;6.10;2.40;;;16.40;99.90;;;;;;6064266;23;20435;-83
2022/06/08 06:00:52;;;;;;;3.27;1.83;;;16.50;99.90;;;;;;6064252;23;20488;-82
2022/06/08 06:03:19;;;;;;;3.57;1.93;;;16.60;99.90;;;;;;6063524;23;20829;-83
2022/06/08 06:05:46;;;;;;;2.80;2.07;;;16.80;99.90;;;;;;6063859;23;20443;-84
2022/06/08 06:08:14;;;;;;;3.77;2.03;;;16.90;99.90;;;;;;6064329;23;20477;-83
2022/06/08 06:10:44;;;;;;;5.33;1.73;;;17.00;99.90;;;;;;6064293;23;20507;-82
2022/06/08 06:13:11;;;;;;;3.20;1.70;;;17.20;99.90;;;;;;6064644;23;20433;-82
2022/06/08 06:15:38;;;;;;;4.00;2.10;;;17.40;99.90;;;;;;6087334;23;20423;-83
2022/06/08 06:18:07;;;;;;;5.63;1.60;;;17.80;99.90;;;;;;6088151;23;20443;-82
2022/06/08 06:20:34;;;;;;;4.47;2.10;;;17.80;99.90;;;;;;6091148;23;20515;-82
2022/06/08 06:23:01;;;;;;;1.97;1.57;;;17.90;99.90;;;;;;6091256;23;20476;-81
2022/06/08 06:25:28;;;;;;;4.57;1.77;;;18.10;99.90;;;;;;6087856;23;20477;-82
2022/06/08 06:27:55;;;;;;;2.27;1.40;;;18.20;99.90;;;;;;6089873;23;20435;-83
2022/06/08 06:30:22;;;;;;;3.00;1.83;;;18.20;99.90;;;;;;6089579;23;20447;-82
2022/06/08 06:32:50;;;;;;;3.90;1.70;;;18.20;99.90;;;;;;6088956;23;20442;-83
2022/06/08 06:35:22;;;;;;;3.17;1.60;;;18.20;99.90;;;;;;6091669;23;20434;-82
2022/06/08 06:37:50;;;;;;;4.37;1.80;;;18.20;99.90;;;;;;6088410;23;20458;-83
2022/06/08 06:40:18;;;;;;;2.47;1.70;;;18.20;99.90;;;;;;6075583;23;20470;-82
2022/06/08 06:42:46;;;;;;;3.13;1.87;;;18.30;99.90;;;;;;6092153;23;20467;-83
2022/06/08 06:45:14;;;;;;;2.97;1.90;;;18.40;99.90;;;;;;6089562;23;20431;-82
2022/06/08 06:47:41;;;;;;;2.60;1.70;;;18.60;99.90;;;;;;6087443;23;20439;-83
2022/06/08 06:50:12;;;;;;;2.80;1.93;;;18.80;99.90;;;;;;6086193;23;20438;-83
2022/06/08 06:52:41;;;;;;;2.30;1.90;;;18.90;99.90;;;;;;6088837;23;21017;-83
2022/06/08 06:55:12;;;;;;;3.50;1.70;;;18.90;99.90;;;;;;6085681;23;20435;-83
2022/06/08 06:57:39;;;;;;;3.67;1.70;;;19.00;99.90;;;;;;6087038;23;20439;-82
2022/06/08 07:00:07;;;;;;;4.03;2.20;;;19.10;99.90;;;;;;6088773;23;20439;-82
2022/06/08 07:02:34;;;;;;;3.30;1.87;;;19.30;99.90;;;;;;6085301;23;20509;-82
2022/06/08 07:05:01;;;;;;;3.90;1.50;;;19.50;99.90;;;;;;6090331;23;20478;-83
2022/06/08 07:07:28;;;;;;;1.87;1.40;;;19.60;99.90;;;;;;6088614;23;20507;-82
2022/06/08 07:09:56;;;;;;;5.90;2.23;;;19.60;99.90;;;;;;6079318;23;20443;-82
2022/06/08 07:12:23;;;;;;;3.67;1.73;;;19.60;99.90;;;;;;6089338;23;20455;-82
2022/06/08 07:14:50;;;;;;;2.30;1.43;;;19.50;99.90;;;;;;6088326;23;20478;-82
2022/06/08 07:17:17;;;;;;;2.97;1.40;;;19.50;99.90;;;;;;6088801;23;20514;-82
2022/06/08 07:19:44;;;;;;;4.00;1.87;;;19.40;99.90;;;;;;6089281;23;20428;-83
2022/06/08 07:22:12;;;;;;;3.00;1.60;;;19.50;99.90;;;;;;6089133;23;20471;-82
2022/06/08 07:24:38;;;;;;;1.90;1.50;;;19.40;99.90;;;;;;6090221;23;20430;-83
2022/06/08 07:27:07;;;;;;;2.77;1.73;;;19.40;99.90;;;;;;6089592;23;20455;-82
2022/06/08 07:29:34;;;;;;;3.30;1.67;;;19.40;99.90;;;;;;6086258;23;20458;-82
2022/06/08 07:32:01;;;;;;;2.80;1.50;;;19.40;99.90;;;;;;6071725;23;20474;-83
2022/06/08 07:34:30;;;;;;;1.90;1.33;;;19.60;99.90;;;;;;6064297;23;20444;-83
2022/06/08 07:36:57;;;;;;;2.73;1.40;;;19.70;99.90;;;;;;6063888;23;20444;-83
2022/06/08 07:39:25;;;;;;;4.27;1.67;;;19.80;99.90;;;;;;6063780;23;20455;-83
2022/06/08 07:41:52;;;;;;;2.60;1.70;;;20.00;99.90;;;;;;6062702;23;20517;-83
2022/06/08 07:44:21;;;;;;;6.27;2.63;;;20.40;99.90;;;;;;6063228;23;20488;-83
2022/06/08 07:46:49;;;;;;;2.73;1.70;;;20.90;99.90;;;;;;6062886;23;20494;-83
2022/06/08 07:52:05;;;;;;;3.17;1.37;;;21.80;99.90;;;;;;6063024;23;20943;-83
2022/06/08 07:54:32;;;;;;;1.87;1.37;;;22.30;99.90;;;;;;6062540;23;20993;-83
2022/06/08 07:57:01;;;;;;;2.50;1.40;;;22.60;99.90;;;;;;6062593;23;20474;-83
2022/06/08 07:59:33;;;;;;;2.87;1.80;;;23.10;99.90;;;;;;6062868;23;20542;-83
2022/06/08 08:02:01;;;;;;;2.87;1.50;;;23.30;99.90;;;;;;6062360;23;20533;-82
2022/06/08 08:04:28;;;;;;;5.43;1.60;;;23.50;99.90;;;;;;6062853;23;20453;-84
2022/06/08 08:06:55;;;;;;;2.90;1.60;;;23.50;99.90;;;;;;6062829;23;20431;-85
2022/06/08 08:09:23;;;;;;;3.47;1.83;;;23.60;99.90;;;;;;6063212;23;20443;-87
2022/06/08 08:11:51;;;;;;;3.07;1.37;;;23.30;99.90;;;;;;6063734;23;20557;-82
2022/06/08 08:14:19;;;;;;;3.83;1.87;;;23.50;99.90;;;;;;6062508;23;20448;-83
2022/06/08 08:16:48;;;;;;;5.17;2.07;;;23.70;99.90;;;;;;6064786;23;20439;-91
2022/06/08 08:19:17;;;;;;;2.43;1.80;;;23.70;99.90;;;;;;6063839;23;20443;-88
2022/06/08 08:21:44;;;;;;;3.00;1.30;;;23.70;99.90;;;;;;6063179;23;20467;-90
2022/06/08 08:24:11;;;;;;;2.37;1.40;;;23.80;99.90;;;;;;6064490;23;20467;-93
2022/06/08 08:26:39;;;;;;;2.90;1.67;;;23.90;99.90;;;;;;6064640;23;20443;-93
2022/06/08 08:29:06;;;;;;;3.27;1.60;;;24.10;99.90;;;;;;6063449;23;20431;-91
2022/06/08 08:31:33;;;;;;;3.57;1.67;;;24.30;99.90;;;;;;6063477;23;20471;-90
2022/06/08 08:34:02;;;;;;;3.50;1.20;;;24.60;99.90;;;;;;6064051;23;20499;-92
2022/06/08 08:36:30;;;;;;;2.47;1.43;;;24.70;99.90;;;;;;6063571;23;20510;-91
2022/06/08 08:38:58;;;;;;;3.63;1.70;;;24.50;99.90;;;;;;6064145;23;20478;-91
2022/06/08 08:44:26;;;;;;;2.77;1.60;;;24.40;99.90;;;;;;6032737;23;20490;-87
2022/06/08 08:46:58;;;;;;;4.57;1.90;;;24.50;99.90;;;;;;6063131;23;20446;-89
2022/06/08 08:49:32;;;;;;;5.17;3.00;;;24.70;99.90;;;;;;6064587;23;20434;-91
2022/06/08 08:52:01;;;;;;;3.87;2.50;;;24.50;98.30;;;;;;6063814;23;20455;-93
2022/06/08 08:54:31;;;;;;;3.00;1.63;;;24.50;98.60;;;;;;6064146;23;20470;-91
2022/06/08 08:57:08;;;;;;;5.27;2.97;;;24.70;97.70;;;;;;6063867;23;20439;-91
2022/06/08 08:59:35;;;;;;;5.97;3.23;;;24.80;98.00;;;;;;6063714;23;20467;-92
2022/06/08 09:02:03;;;;;;;3.40;2.40;;;25.10;97.90;;;;;;6062438;23;20550;-83
2022/06/08 09:04:34;;;;;;;2.80;1.70;;;25.50;97.90;;;;;;6063071;23;20471;-81
2022/06/08 09:07:12;;;;;;;3.00;1.30;;;25.50;95.80;;;;;;6061580;23;21038;-81
2022/06/08 09:09:39;;;;;;;4.10;1.40;;;25.10;95.60;;;;;;6062702;23;20458;-83
2022/06/08 09:12:12;;;;;;;2.83;1.20;;;24.60;96.50;;;;;;6062995;23;20455;-79
2022/06/08 09:14:49;;;;;;;2.50;1.37;;;24.30;97.40;;;;;;6063238;23;20501;-78
2022/06/08 09:17:19;;;;;;;6.23;1.70;;;24.50;97.50;;;;;;6063309;23;20423;-78
2022/06/08 09:19:49;;;;;;;1.93;1.00;;;25.00;96.70;;;;;;6063302;23;20439;-78
2022/06/08 09:22:22;;;;;;;2.30;1.40;;;25.50;95.10;;;;;;6063996;23;20534;-78
2022/06/08 09:24:53;;;;;;;2.60;1.50;;;25.60;95.10;;;;;;6063785;23;20494;-78
2022/06/08 09:27:27;;;;;;;4.20;1.70;;;25.60;94.60;;;;;;6063546;23;20485;-76
2022/06/08 09:30:03;;;;;;;5.43;1.87;;;24.90;95.40;;;;;;6063588;23;20455;-80
2022/06/08 09:32:34;;;;;;;3.67;1.40;;;24.40;95.90;;;;;;6063194;23;20980;-79
2022/06/08 09:35:05;;;;;;;3.37;1.93;;;24.80;96.10;;;;;;6063452;23;20437;-78
2022/06/08 09:37:33;;;;;;;4.53;2.67;;;25.10;93.70;;;;;;6063380;23;20551;-80
2022/06/08 09:40:02;;;;;;;4.93;1.63;;;25.40;93.80;;;;;;6063343;23;20463;-81
2022/06/08 09:42:58;;;;;;;3.93;1.73;;;25.50;93.30;;;;;;6063047;23;20979;-81
2022/06/08 09:45:44;;;;;;;4.87;1.73;;;26.30;93.10;;;;;;6039111;23;20439;-80
2022/06/08 09:51:54;;;;;;;2.63;1.20;;;27.20;91.70;;;;;;6062875;23;20451;-80
2022/06/08 09:54:28;;;;;;;2.53;1.23;;;27.20;92.00;;;;;;6063245;23;20463;-78
2022/06/08 09:57:20;;;;;;;3.33;1.40;;;27.20;91.70;;;;;;6063044;23;20425;-78
2022/06/08 10:00:05;;;;;;;3.17;1.40;;;26.60;93.00;;;;;;6062750;23;20783;-82
2022/06/08 10:02:45;;;;;;;2.30;1.33;;;26.30;92.50;;;;;;6063006;23;20435;-79
2022/06/08 10:05:22;;;;;;;1.93;1.30;;;26.90;91.70;;;;;;6063107;23;20446;-77
2022/06/08 10:07:58;;;;;;;2.10;1.50;;;27.10;91.90;;;;;;6063264;23;20431;-78
2022/06/08 10:10:33;;;;;;;3.43;1.43;;;27.20;91.00;;;;;;6063068;23;20562;-79
2022/06/08 10:13:03;;;;;;;1.40;1.30;;;26.80;91.20;;;;;;6063199;23;20484;-81
2022/06/08 10:15:37;;;;;;;3.13;1.73;;;25.90;92.20;;;;;;6063297;23;20486;-82
2022/06/08 10:18:13;;;;;;;3.80;1.70;;;24.70;93.70;;;;;;6063433;23;20431;-81
2022/06/08 10:20:45;;;;;;;3.40;1.60;;;24.10;94.80;;;;;;6063103;23;20538;-81
2022/06/08 10:23:26;;;;;;;2.60;1.43;;;23.60;96.00;;;;;;6063316;23;20485;-81
2022/06/08 10:25:58;;;;;;;3.13;1.33;;;23.40;97.00;;;;;;6063028;23;20827;-81
2022/06/08 10:28:30;;;;;;;3.03;1.40;;;24.00;96.20;;;;;;6063459;23;20436;-81
2022/06/08 10:31:01;;;;;;;1.90;1.40;;;24.90;95.30;;;;;;6063504;23;20474;-81
2022/06/08 10:33:37;;;;;;;1.77;1.20;;;25.60;95.40;;;;;;6062967;23;20942;-81
2022/06/08 10:36:05;;;;;;;1.67;1.10;;;26.20;92.30;;;;;;6062470;23;20446;-81
2022/06/08 10:38:37;;;;;;;1.80;1.30;;;26.60;91.70;;;;;;6063382;23;20435;-82
2022/06/08 10:44:33;;;;;;;2.57;1.30;;;27.70;86.60;;;;;;6062866;23;21034;-82
2022/06/08 10:47:16;;;;;;;2.00;1.70;;;27.60;83.90;;;;;;6063099;23;20428;-82
2022/06/08 10:49:52;;;;;;;2.30;1.60;;;27.20;83.60;;;;;;6063056;23;20442;-81
2022/06/08 10:52:40;;;;;;;3.57;1.27;;;26.60;85.90;;;;;;6062956;23;20534;-81
2022/06/08 10:55:36;;;;;;;2.73;1.60;;;25.60;87.30;;;;;;6062462;23;20970;-81
2022/06/08 10:58:07;;;;;;;2.27;1.20;;;25.10;85.30;;;;;;6037894;23;20938;-81
2022/06/08 11:01:07;;;;;;;3.23;1.30;;;25.40;86.60;;;;;;6062845;23;20490;-81
2022/06/08 11:03:54;;;;;;;1.73;1.07;;;26.60;78.70;;;;;;6063046;23;20488;-82
2022/06/08 11:07:02;;;;;;;2.20;1.17;;;26.70;75.90;;;;;;6062487;23;20506;-83
2022/06/08 11:09:59;;;;;;;1.43;0.90;;;26.30;78.50;;;;;;6051514;23;20442;-82
2022/06/08 11:12:57;;;;;;;1.40;1.00;;;25.90;74.70;;;;;;6062789;23;20515;-82
2022/06/08 11:15:42;;;;;;;2.40;1.20;;;26.30;77.30;;;;;;6062520;23;20453;-82
2022/06/08 11:18:27;;;;;;;1.23;1.10;;;27.10;76.30;;;;;;6062970;23;20448;-82
2022/06/08 11:21:26;;;;;;;1.60;1.33;;;27.30;74.50;;;;;;6062518;23;20459;-83
2022/06/08 11:23:56;;;;;;;1.67;1.10;;;27.50;75.60;;;;;;6053638;23;20467;-82
2022/06/08 11:26:45;;;;;;;2.23;1.23;;;27.80;72.50;;;;;;6062914;23;20470;-82
2022/06/08 11:29:47;;;;;;;1.23;0.93;;;27.60;72.90;;;;;;6062674;23;20501;-83
2022/06/08 11:32:41;;;;;;;2.13;1.10;;;27.00;73.00;;;;;;6063153;23;20513;-82
2022/06/08 11:35:46;;;;;;;2.80;1.40;;;26.40;74.60;;;;;;6057308;23;20446;-82
2022/06/08 11:38:27;;;;;;;2.03;1.23;;;25.70;78.00;;;;;;6062956;23;20463;-82
2022/06/08 11:41:21;;;;;;;4.60;1.50;;;25.60;79.10;;;;;;6062787;23;20551;-82
2022/06/08 11:43:49;;;;;;;1.97;1.10;;;25.60;79.90;;;;;;6062561;23;20467;-82
2022/06/08 11:46:25;;;;;;;2.03;1.40;;;26.20;79.20;;;;;;6062684;23;20522;-83
2022/06/08 11:48:53;;;;;;;3.57;1.37;;;26.50;77.10;;;;;;6062665;23;20903;-82
2022/06/08 11:51:34;;;;;;;2.33;1.20;;;26.80;77.90;;;;;;6062682;23;20455;-82
2022/06/08 11:54:16;;;;;;;1.27;0.90;;;26.70;77.00;;;;;;6062940;23;20447;-82
2022/06/08 11:56:53;;;;;;;1.47;1.10;;;26.50;74.80;;;;;;6063021;23;20424;-83
2022/06/08 11:59:21;;;;;;;2.70;1.10;;;26.30;76.00;;;;;;6062778;23;20505;-82
2022/06/08 12:01:54;;;;;;;2.13;1.20;;;25.90;80.10;;;;;;6062638;23;20455;-82
2022/06/08 12:04:25;;;;;;;1.50;1.37;;;25.70;79.50;;;;;;6062615;23;20826;-82
2022/06/08 12:06:53;;;;;;;1.50;1.13;;;25.50;80.10;;;;;;6062105;23;21030;-82
2022/06/08 12:09:26;;;;;;;1.70;1.30;;;25.40;82.50;;;;;;6063261;23;20438;-83
2022/06/08 12:11:55;;;;;;;1.90;1.10;;;25.30;81.40;;;;;;6062377;23;20463;-82
2022/06/08 12:14:27;;;;;;;1.73;1.33;;;25.30;80.10;;;;;;6062378;23;20841;-82
2022/06/08 12:16:59;;;;;;;3.00;1.43;;;25.30;81.40;;;;;;6062197;23;20463;-82
2022/06/08 12:19:29;;;;;;;4.87;3.50;;;25.20;79.60;;;;;;6062610;23;20998;-82
2022/06/08 12:22:16;;;;;;;2.90;1.80;;;25.40;79.30;;;;;;6062469;23;20590;-83
2022/06/08 12:24:43;;;;;;;2.50;1.20;;;25.70;79.80;;;;;;6062671;23;20455;-82
2022/06/08 12:27:21;;;;;;;1.73;1.30;;;25.70;78.50;;;;;;6062184;23;20851;-82
2022/06/08 12:29:54;;;;;;;2.60;1.17;;;25.50;80.00;;;;;;6062510;23;20443;-83
2022/06/08 12:32:50;;;;;;;1.67;1.10;;;25.80;79.40;;;;;;6062570;23;20938;-82
2022/06/08 12:35:27;;;;;;;1.30;1.17;;;26.40;77.30;;;;;;6062571;23;20952;-83
2022/06/08 12:38:20;;;;;;;2.83;1.33;;;27.50;76.20;;;;;;6062562;23;20431;-83
2022/06/08 12:41:02;;;;;;;1.67;1.07;;;28.20;75.00;;;;;;6062306;23;20465;-83
2022/06/08 12:43:43;;;;;;;2.37;1.10;;;28.70;72.70;;;;;;6062592;23;20577;-82
2022/06/08 12:46:21;;;;;;;1.30;1.10;;;28.90;72.40;;;;;;6062061;23;20489;-83
2022/06/08 12:48:58;;;;;;;1.40;1.20;;;29.00;72.30;;;;;;6062318;23;20438;-83
2022/06/08 12:51:35;;;;;;;1.60;1.10;;;29.20;71.50;;;;;;6062325;23;20462;-83
2022/06/08 12:54:10;;;;;;;3.37;1.17;;;29.20;70.00;;;;;;6062329;23;20436;-82
2022/06/08 12:56:37;;;;;;;1.90;1.40;;;28.90;69.80;;;;;;6062208;23;20577;-83
2022/06/08 12:59:04;;;;;;;1.73;1.20;;;28.70;69.00;;;;;;6061936;23;20431;-82
2022/06/08 13:01:31;;;;;;;1.47;1.10;;;28.90;70.20;;;;;;6062488;23;20554;-83
2022/06/08 13:04:00;;;;;;;1.63;1.03;;;29.00;68.90;;;;;;6061747;23;20473;-83
2022/06/08 13:06:27;;;;;;;1.40;1.00;;;29.40;69.40;;;;;;6062353;23;20463;-83
2022/06/08 13:08:54;;;;;;;2.70;1.37;;;29.80;67.60;;;;;;6062172;23;20788;-83
2022/06/08 13:11:23;;;;;;;2.47;1.07;;;30.20;66.80;;;;;;6062477;23;20477;-83
2022/06/08 13:13:54;;;;;;;2.43;1.23;;;30.20;67.70;;;;;;6062127;23;20443;-83
2022/06/08 13:16:24;;;;;;;2.90;1.20;;;29.50;69.40;;;;;;6061891;23;20447;-83
2022/06/08 13:18:51;;;;;;;2.67;1.10;;;28.90;66.70;;;;;;6062095;23;20459;-83
2022/06/08 13:21:21;;;;;;;2.80;2.37;;;28.70;66.80;;;;;;6062113;23;20468;-83
2022/06/08 13:23:48;;;;;;;3.00;1.77;;;28.80;67.80;;;;;;6062511;23;20469;-83
2022/06/08 13:26:19;;;;;;;2.80;1.50;;;29.50;67.10;;;;;;6062131;23;20467;-83
2022/06/08 13:28:47;;;;;;;3.63;1.10;;;29.70;66.30;;;;;;6062033;23;20514;-83